createdAt,value
2019-04-21T00:00:21.034Z,410.09
2019-04-21T00:01:20.092Z,410.72
2019-04-21T00:02:26.408Z,409.82
2019-04-21T00:03:26.119Z,409.52
2019-04-21T00:04:36.114Z,410.00
2019-04-21T00:05:38.604Z,408.82
2019-04-21T00:06:42.245Z,409.33
2019-04-21T00:07:40.397Z,408.99
2019-04-21T00:08:56.466Z,408.86
2019-04-21T00:09:41.098Z,409.16
2019-04-21T00:10:41.896Z,409.70
2019-04-21T00:11:41.106Z,409.00
2019-04-21T00:12:37.613Z,409.66
2019-04-21T00:13:35.516Z,408.77
2019-04-21T00:14:31.480Z,409.96
2019-04-21T00:15:29.805Z,409.22
2019-04-21T00:16:29.693Z,409.53
2019-04-21T00:17:23.159Z,408.67
2019-04-21T00:18:19.739Z,410.69
2019-04-21T00:19:23.223Z,411.09
2019-04-21T00:20:28.863Z,409.17
2019-04-21T00:21:31.550Z,410.24
2019-04-21T00:22:35.583Z,407.99
2019-04-21T00:23:39.718Z,408.16
2019-04-21T00:24:33.663Z,408.63
2019-04-21T00:25:33.700Z,408.99
2019-04-21T00:26:42.906Z,409.40
2019-04-21T00:27:36.780Z,409.97
2019-04-21T00:28:47.463Z,409.78
2019-04-21T00:29:45.745Z,409.48
2019-04-21T00:30:42.559Z,408.03
2019-04-21T00:31:33.671Z,408.26
2019-04-21T00:32:31.364Z,410.30
2019-04-21T00:33:26.236Z,410.05
2019-04-21T00:34:19.693Z,409.40
2019-04-21T00:35:21.087Z,408.04
2019-04-21T00:36:26.172Z,409.15
2019-04-21T00:37:30.279Z,409.29
2019-04-21T00:38:49.641Z,407.33
2019-04-21T00:39:49.322Z,408.30
2019-04-21T00:40:41.724Z,408.90
2019-04-21T00:41:43.768Z,409.74
2019-04-21T00:42:40.301Z,410.34
2019-04-21T00:43:35.358Z,410.21
2019-04-21T00:44:29.559Z,408.20
2019-04-21T00:45:33.707Z,408.87
2019-04-21T00:46:34.797Z,408.21
2019-04-21T00:48:00.437Z,408.53
2019-04-21T00:48:45.909Z,410.00
2019-04-21T00:49:31.968Z,410.62
2019-04-21T00:50:51.531Z,410.27
2019-04-21T00:51:46.252Z,410.25
2019-04-21T00:53:45.548Z,410.51
2019-04-21T00:54:51.654Z,407.83
2019-04-21T00:55:45.873Z,407.54
2019-04-21T00:56:41.371Z,408.12
2019-04-21T00:57:44.913Z,408.23
2019-04-21T00:58:38.698Z,410.20
2019-04-21T00:59:43.345Z,408.31
2019-04-21T01:00:41.781Z,408.15
2019-04-21T01:01:38.259Z,408.48
2019-04-21T01:02:47.169Z,408.85
2019-04-21T01:03:46.077Z,408.77
2019-04-21T01:04:43.023Z,409.62
2019-04-21T01:05:49.701Z,408.83
2019-04-21T01:06:43.160Z,407.83
2019-04-21T01:07:42.347Z,408.44
2019-04-21T01:08:41.213Z,411.51
2019-04-21T01:09:31.783Z,408.11
2019-04-21T01:10:31.949Z,408.64
2019-04-21T01:11:44.447Z,410.17
2019-04-21T01:12:41.776Z,409.52
2019-04-21T01:13:41.598Z,410.56
2019-04-21T01:14:50.271Z,410.39
2019-04-21T01:15:43.946Z,409.08
2019-04-21T01:16:45.792Z,407.53
2019-04-21T01:17:44.833Z,411.13
2019-04-21T01:18:41.287Z,411.65
2019-04-21T01:19:38.740Z,410.53
2019-04-21T01:20:19.022Z,408.89
2019-04-21T01:21:18.005Z,410.60
2019-04-21T01:22:18.003Z,408.18
2019-04-21T01:23:19.195Z,410.50
2019-04-21T01:24:25.933Z,408.61
2019-04-21T01:25:27.482Z,408.85
2019-04-21T01:26:32.792Z,410.15
2019-04-21T01:27:32.930Z,408.30
2019-04-21T01:28:34.038Z,408.59
2019-04-21T01:29:41.504Z,408.49
2019-04-21T01:30:39.881Z,408.97
2019-04-21T01:31:36.281Z,408.96
2019-04-21T01:32:42.625Z,410.01
2019-04-21T01:33:48.709Z,411.77
2019-04-21T01:34:40.900Z,407.61
2019-04-21T01:35:40.175Z,408.57
2019-04-21T01:36:39.665Z,408.28
2019-04-21T01:37:44.021Z,408.12
2019-04-21T01:38:40.923Z,409.24
2019-04-21T01:39:42.692Z,408.48
2019-04-21T01:40:40.845Z,407.60
2019-04-21T01:41:42.958Z,409.00
2019-04-21T01:42:38.190Z,407.82
2019-04-21T01:43:34.977Z,409.12
2019-04-21T01:44:45.006Z,409.35
2019-04-21T01:45:39.815Z,409.22
2019-04-21T01:46:34.963Z,409.91
2019-04-21T01:47:36.023Z,411.21
2019-04-21T01:48:36.032Z,412.48
2019-04-21T01:49:33.335Z,410.17
2019-04-21T01:50:34.447Z,408.83
2019-04-21T01:51:37.097Z,409.92
2019-04-21T01:52:45.459Z,410.91
2019-04-21T01:53:36.804Z,409.29
2019-04-21T01:54:40.650Z,411.93
2019-04-21T01:55:45.526Z,412.09
2019-04-21T01:56:43.213Z,409.09
2019-04-21T01:57:37.552Z,408.70
2019-04-21T01:58:30.727Z,408.23
2019-04-21T01:59:30.597Z,409.06
2019-04-21T02:00:32.797Z,409.55
2019-04-21T02:01:40.568Z,409.85
2019-04-21T02:02:44.829Z,409.62
2019-04-21T02:04:41.799Z,411.37
2019-04-21T02:05:44.348Z,407.45
2019-04-21T02:06:41.371Z,407.63
2019-04-21T02:07:40.645Z,410.87
2019-04-21T02:08:36.519Z,409.10
2019-04-21T02:09:38.026Z,410.63
2019-04-21T02:10:46.277Z,409.98
2019-04-21T02:11:43.223Z,408.62
2019-04-21T02:12:38.038Z,410.48
2019-04-21T02:13:49.722Z,409.07
2019-04-21T02:14:46.073Z,408.52
2019-04-21T02:15:43.784Z,409.42
2019-04-21T02:16:40.709Z,409.35
2019-04-21T02:17:34.249Z,407.64
2019-04-21T02:18:39.588Z,408.57
2019-04-21T02:19:31.223Z,410.20
2019-04-21T02:20:32.662Z,407.78
2019-04-21T02:21:36.444Z,407.91
2019-04-21T02:23:06.716Z,407.26
2019-04-21T02:23:46.546Z,409.05
2019-04-21T02:24:51.896Z,407.39
2019-04-21T02:25:38.489Z,408.08
2019-04-21T02:26:41.512Z,408.68
2019-04-21T02:27:47.504Z,408.17
2019-04-21T02:28:50.038Z,408.50
2019-04-21T02:29:40.920Z,407.85
2019-04-21T02:31:45.179Z,412.05
2019-04-21T02:33:08.813Z,409.37
2019-04-21T02:34:57.161Z,408.10
2019-04-21T02:36:10.218Z,410.93
2019-04-21T02:37:05.526Z,407.48
2019-04-21T02:37:55.523Z,409.85
2019-04-21T02:38:59.220Z,409.13
2019-04-21T02:41:56.126Z,409.87
2019-04-21T02:42:59.860Z,410.25
2019-04-21T02:43:58.317Z,408.21
2019-04-21T02:45:51.256Z,408.52
2019-04-21T02:48:55.322Z,407.70
2019-04-21T02:52:55.434Z,407.30
2019-04-21T02:54:32.410Z,409.42
2019-04-21T02:55:03.679Z,409.02
2019-04-21T02:55:47.255Z,411.81
2019-04-21T02:56:54.990Z,410.20
2019-04-21T02:57:51.913Z,409.00
2019-04-21T02:58:56.684Z,409.49
2019-04-21T02:59:49.407Z,408.78
2019-04-21T03:00:44.961Z,408.39
2019-04-21T03:01:55.890Z,407.90
2019-04-21T03:02:46.989Z,407.97
2019-04-21T03:03:52.744Z,407.36
2019-04-21T03:04:53.201Z,412.64
2019-04-21T03:06:59.490Z,411.86
2019-04-21T03:09:45.911Z,408.15
2019-04-21T03:10:54.029Z,407.59
2019-04-21T03:11:58.882Z,408.02
2019-04-21T03:12:43.854Z,408.96
2019-04-21T03:15:02.473Z,407.25
2019-04-21T03:16:03.176Z,407.35
2019-04-21T03:16:41.624Z,408.48
2019-04-21T03:17:49.857Z,412.14
2019-04-21T03:19:55.689Z,407.51
2019-04-21T03:20:55.039Z,408.49
2019-04-21T03:21:48.321Z,406.98
2019-04-21T03:23:09.459Z,406.88
2019-04-21T03:25:04.555Z,408.36
2019-04-21T03:27:01.423Z,406.93
2019-04-21T03:28:54.170Z,408.48
2019-04-21T03:29:54.856Z,406.99
2019-04-21T03:34:34.862Z,406.70
2019-04-21T03:35:15.870Z,406.99
2019-04-21T03:36:12.886Z,408.94
2019-04-21T03:37:48.081Z,406.58
2019-04-21T03:38:43.171Z,408.16
2019-04-21T03:39:50.922Z,409.63
2019-04-21T03:40:51.851Z,408.36
2019-04-21T03:42:11.382Z,407.51
2019-04-21T03:42:48.015Z,406.72
2019-04-21T03:44:47.805Z,407.78
2019-04-21T03:45:44.484Z,411.32
2019-04-21T03:46:47.286Z,410.23
2019-04-21T03:47:44.355Z,407.28
2019-04-21T03:52:03.643Z,408.73
2019-04-21T03:52:53.383Z,407.21
2019-04-21T03:53:48.133Z,409.05
2019-04-21T03:54:53.824Z,406.57
2019-04-21T03:57:04.809Z,406.40
2019-04-21T03:58:54.254Z,408.25
2019-04-21T03:59:45.816Z,408.08
2019-04-21T04:01:02.926Z,408.86
2019-04-21T04:01:48.708Z,406.47
2019-04-21T04:02:55.225Z,406.89
2019-04-21T04:04:55.069Z,410.11
2019-04-21T04:09:52.477Z,407.51
2019-04-21T04:10:53.736Z,408.92
2019-04-21T04:12:50.559Z,409.31
2019-04-21T04:13:56.013Z,408.81
2019-04-21T04:17:02.325Z,408.31
2019-04-21T04:17:49.854Z,408.54
2019-04-21T04:18:57.879Z,409.17
2019-04-21T04:20:42.491Z,410.74
2019-04-21T04:22:56.396Z,406.90
2019-04-21T04:24:49.365Z,408.97
2019-04-21T04:26:45.411Z,409.34
2019-04-21T04:28:58.044Z,408.53
2019-04-21T04:30:07.703Z,406.70
2019-04-21T04:30:45.542Z,406.92
2019-04-21T04:31:44.047Z,409.87
2019-04-21T04:32:43.669Z,405.57
2019-04-21T04:34:59.555Z,406.87
2019-04-21T04:36:05.917Z,407.65
2019-04-21T04:36:58.535Z,407.16
2019-04-21T04:39:48.801Z,406.82
2019-04-21T04:40:48.374Z,409.39
2019-04-21T04:42:00.320Z,408.47
2019-04-21T04:43:05.161Z,408.01
2019-04-21T04:45:44.155Z,407.60
2019-04-21T04:47:49.862Z,408.67
2019-04-21T04:50:55.529Z,410.76
2019-04-21T04:52:48.998Z,406.48
2019-04-21T04:53:47.060Z,408.52
2019-04-21T04:54:55.068Z,409.41
2019-04-21T04:55:46.140Z,407.04
2019-04-21T04:56:48.249Z,407.43
2019-04-21T04:57:55.012Z,406.14
2019-04-21T05:00:04.784Z,407.48
2019-04-21T05:02:40.469Z,406.14
2019-04-21T05:03:52.572Z,407.45
2019-04-21T05:05:48.664Z,408.04
2019-04-21T05:07:52.300Z,406.91
2019-04-21T05:09:50.448Z,407.77
2019-04-21T05:11:01.451Z,407.35
2019-04-21T05:11:48.830Z,408.52
2019-04-21T05:12:47.146Z,406.21
2019-04-21T05:13:51.416Z,406.37
2019-04-21T05:14:47.001Z,407.48
2019-04-21T05:15:41.778Z,407.05
2019-04-21T05:16:47.016Z,407.67
2019-04-21T05:17:43.203Z,408.02
2019-04-21T05:18:53.128Z,407.18
2019-04-21T05:19:56.468Z,406.15
2019-04-21T05:20:53.250Z,408.97
2019-04-21T05:21:42.073Z,407.24
2019-04-21T05:22:50.353Z,407.43
2019-04-21T05:23:37.716Z,407.40
2019-04-21T05:24:36.080Z,407.53
2019-04-21T05:25:35.176Z,409.78
2019-04-21T05:26:34.437Z,410.28
2019-04-21T05:27:29.455Z,407.85
2019-04-21T05:28:29.933Z,407.98
2019-04-21T05:29:38.844Z,408.14
2019-04-21T05:30:43.413Z,408.49
2019-04-21T05:31:43.062Z,407.82
2019-04-21T05:32:41.669Z,407.96
2019-04-21T05:33:38.401Z,408.06
2019-04-21T05:34:37.404Z,408.24
2019-04-21T05:35:39.190Z,408.17
2019-04-21T05:36:37.954Z,407.60
2019-04-21T05:37:36.957Z,408.28
2019-04-21T05:38:33.366Z,407.98
2019-04-21T05:39:36.248Z,407.90
2019-04-21T05:40:31.940Z,408.75
2019-04-21T05:41:26.662Z,408.35
2019-04-21T05:42:37.782Z,408.64
2019-04-21T05:43:39.097Z,408.15
2019-04-21T05:44:41.869Z,409.74
2019-04-21T05:45:44.179Z,410.04
2019-04-21T05:46:46.598Z,411.35
2019-04-21T05:47:40.090Z,409.21
2019-04-21T05:48:39.220Z,410.47
2019-04-21T05:49:37.003Z,408.98
2019-04-21T05:50:32.554Z,411.00
2019-04-21T05:51:34.234Z,411.22
2019-04-21T05:52:35.269Z,410.06
2019-04-21T05:53:36.192Z,409.54
2019-04-21T05:54:44.244Z,408.74
2019-04-21T05:55:43.502Z,409.20
2019-04-21T05:56:35.445Z,411.61
2019-04-21T05:57:38.159Z,409.09
2019-04-21T05:58:40.599Z,408.97
2019-04-21T05:59:40.375Z,408.34
2019-04-21T06:01:09.307Z,408.60
2019-04-21T06:01:39.349Z,409.22
2019-04-21T06:02:35.441Z,409.06
2019-04-21T06:03:44.708Z,408.52
2019-04-21T06:05:46.721Z,408.26
2019-04-21T06:06:41.029Z,408.29
2019-04-21T06:07:34.942Z,408.00
2019-04-21T06:08:37.303Z,408.30
2019-04-21T06:09:46.855Z,408.92
2019-04-21T06:10:42.885Z,408.26
2019-04-21T06:11:36.040Z,408.28
2019-04-21T06:12:40.651Z,409.18
2019-04-21T06:13:51.633Z,409.00
2019-04-21T06:14:46.819Z,409.76
2019-04-21T06:15:44.603Z,409.45
2019-04-21T06:16:44.160Z,409.28
2019-04-21T06:18:48.624Z,409.40
2019-04-21T06:19:47.986Z,409.07
2019-04-21T06:20:40.720Z,408.46
2019-04-21T06:21:40.425Z,408.19
2019-04-21T06:22:40.177Z,408.52
2019-04-21T06:23:36.002Z,408.05
2019-04-21T06:24:52.864Z,407.62
2019-04-21T06:25:50.372Z,407.78
2019-04-21T06:27:37.942Z,408.34
2019-04-21T06:28:42.642Z,409.46
2019-04-21T06:29:36.197Z,410.54
2019-04-21T06:30:40.913Z,410.13
2019-04-21T06:32:06.735Z,410.92
2019-04-21T06:32:46.760Z,410.37
2019-04-21T06:33:43.203Z,408.77
2019-04-21T06:34:51.735Z,408.27
2019-04-21T06:35:55.552Z,408.32
2019-04-21T06:37:46.888Z,408.05
2019-04-21T06:38:43.235Z,408.29
2019-04-21T06:39:54.250Z,408.72
2019-04-21T06:40:43.723Z,408.24
2019-04-21T06:41:37.947Z,409.02
2019-04-21T06:42:43.200Z,409.06
2019-04-21T06:43:40.175Z,411.09
2019-04-21T06:44:41.310Z,409.15
2019-04-21T06:45:41.236Z,409.18
2019-04-21T06:46:59.248Z,408.95
2019-04-21T06:47:42.397Z,408.81
2019-04-21T06:48:40.564Z,408.33
2019-04-21T06:49:41.100Z,408.39
2019-04-21T06:50:41.203Z,408.55
2019-04-21T06:51:35.758Z,408.81
2019-04-21T06:52:54.940Z,408.56
2019-04-21T06:53:48.613Z,409.06
2019-04-21T06:54:45.609Z,408.75
2019-04-21T06:55:37.927Z,408.32
2019-04-21T06:56:40.923Z,407.45
2019-04-21T06:57:40.330Z,408.75
2019-04-21T06:58:40.818Z,408.62
2019-04-21T06:59:31.927Z,408.50
2019-04-21T07:00:38.029Z,410.33
2019-04-21T07:01:45.191Z,409.11
2019-04-21T07:02:43.664Z,408.90
2019-04-21T07:03:42.132Z,409.05
2019-04-21T07:04:46.571Z,409.11
2019-04-21T07:05:41.189Z,409.37
2019-04-21T07:06:45.714Z,410.54
2019-04-21T07:07:41.879Z,410.08
2019-04-21T07:08:44.398Z,410.12
2019-04-21T07:09:36.481Z,408.47
2019-04-21T07:10:41.578Z,409.59
2019-04-21T07:11:36.743Z,409.82
2019-04-21T07:12:37.250Z,409.77
2019-04-21T07:13:33.356Z,409.49
2019-04-21T07:14:38.078Z,408.34
2019-04-21T07:15:41.998Z,409.08
2019-04-21T07:16:38.799Z,411.59
2019-04-21T07:17:32.635Z,411.70
2019-04-21T07:18:44.086Z,410.86
2019-04-21T07:19:40.935Z,409.79
2019-04-21T07:20:38.402Z,410.54
2019-04-21T07:21:43.406Z,410.07
2019-04-21T07:22:37.306Z,409.59
2019-04-21T07:23:38.647Z,409.60
2019-04-21T07:24:37.383Z,408.64
2019-04-21T07:25:39.137Z,409.57
2019-04-21T07:26:36.890Z,410.55
2019-04-21T07:27:41.319Z,410.95
2019-04-21T07:28:38.930Z,410.85
2019-04-21T07:29:45.339Z,411.23
2019-04-21T07:30:37.669Z,410.60
2019-04-21T07:31:40.224Z,411.37
2019-04-21T07:32:40.191Z,410.83
2019-04-21T07:33:54.177Z,411.35
2019-04-21T07:34:38.305Z,410.77
2019-04-21T07:35:40.972Z,410.68
2019-04-21T07:36:46.419Z,410.29
2019-04-21T07:37:38.091Z,412.41
2019-04-21T07:38:33.162Z,410.98
2019-04-21T07:39:35.700Z,411.05
2019-04-21T07:40:29.064Z,410.98
2019-04-21T07:41:31.058Z,409.50
2019-04-21T07:42:32.800Z,411.05
2019-04-21T07:43:31.466Z,409.74
2019-04-21T07:44:29.066Z,409.55
2019-04-21T07:45:30.320Z,411.22
2019-04-21T07:46:27.360Z,408.01
2019-04-21T07:47:34.342Z,409.69
2019-04-21T07:48:37.780Z,412.34
2019-04-21T07:49:43.608Z,411.94
2019-04-21T07:50:31.841Z,411.62
2019-04-21T07:51:37.799Z,410.27
2019-04-21T07:52:49.095Z,409.89
2019-04-21T07:53:48.151Z,409.11
2019-04-21T07:54:35.789Z,409.08
2019-04-21T07:56:20.247Z,409.72
2019-04-21T07:57:33.200Z,410.99
2019-04-21T07:58:38.794Z,412.03
2019-04-21T07:59:52.240Z,412.93
2019-04-21T08:00:40.769Z,412.38
2019-04-21T08:01:35.639Z,412.37
2019-04-21T08:02:34.286Z,410.68
2019-04-21T08:03:33.601Z,410.94
2019-04-21T08:05:43.194Z,410.51
2019-04-21T08:06:43.817Z,412.57
2019-04-21T08:08:34.314Z,410.77
2019-04-21T08:09:32.926Z,410.26
2019-04-21T08:10:34.959Z,411.88
2019-04-21T08:11:31.622Z,412.31
2019-04-21T08:13:40.081Z,410.48
2019-04-21T08:14:38.360Z,410.31
2019-04-21T08:15:33.943Z,410.16
2019-04-21T08:16:42.046Z,410.70
2019-04-21T08:17:36.253Z,410.21
2019-04-21T08:18:41.879Z,414.46
2019-04-21T08:19:32.554Z,412.99
2019-04-21T08:20:29.118Z,410.46
2019-04-21T08:21:37.086Z,411.14
2019-04-21T08:22:41.214Z,410.72
2019-04-21T08:23:31.787Z,411.09
2019-04-21T08:24:36.428Z,411.25
2019-04-21T08:25:34.875Z,410.33
2019-04-21T08:26:39.806Z,409.75
2019-04-21T08:27:35.186Z,409.94
2019-04-21T08:28:32.315Z,414.85
2019-04-21T08:30:47.888Z,412.69
2019-04-21T08:31:43.733Z,412.12
2019-04-21T08:32:49.532Z,411.04
2019-04-21T08:33:38.394Z,410.76
2019-04-21T08:34:37.346Z,410.14
2019-04-21T08:35:53.658Z,411.07
2019-04-21T08:36:34.035Z,410.41
2019-04-21T08:37:31.305Z,411.00
2019-04-21T08:38:36.225Z,410.62
2019-04-21T08:39:37.957Z,410.64
2019-04-21T08:40:36.868Z,413.70
2019-04-21T08:41:36.129Z,412.64
2019-04-21T08:42:34.792Z,413.83
2019-04-21T08:43:42.598Z,413.81
2019-04-21T08:45:35.667Z,412.10
2019-04-21T08:46:31.128Z,411.97
2019-04-21T08:47:36.448Z,413.39
2019-04-21T08:48:34.997Z,412.60
2019-04-21T08:49:34.909Z,413.76
2019-04-21T08:50:34.231Z,410.94
2019-04-21T08:51:33.507Z,411.92
2019-04-21T08:53:36.157Z,413.11
2019-04-21T08:54:37.027Z,411.58
2019-04-21T08:55:32.055Z,412.55
2019-04-21T08:56:34.276Z,410.88
2019-04-21T08:57:47.623Z,411.91
2019-04-21T08:58:34.514Z,411.77
2019-04-21T08:59:55.226Z,412.59
2019-04-21T09:00:45.303Z,412.54
2019-04-21T09:01:38.312Z,412.48
2019-04-21T09:02:35.803Z,410.60
2019-04-21T09:03:35.828Z,413.58
2019-04-21T09:04:28.761Z,415.43
2019-04-21T09:05:34.257Z,413.88
2019-04-21T09:06:49.853Z,413.03
2019-04-21T09:08:33.094Z,411.25
2019-04-21T09:09:34.998Z,412.08
2019-04-21T09:10:35.549Z,411.98
2019-04-21T09:11:28.814Z,412.24
2019-04-21T09:12:34.618Z,412.35
2019-04-21T09:13:30.846Z,410.33
2019-04-21T09:14:30.478Z,411.44
2019-04-21T09:15:31.026Z,412.15
2019-04-21T09:16:31.107Z,412.04
2019-04-21T09:17:31.842Z,411.64
2019-04-21T09:19:38.577Z,412.93
2019-04-21T09:20:42.763Z,412.00
2019-04-21T09:21:35.076Z,411.74
2019-04-21T09:22:29.835Z,411.93
2019-04-21T09:23:36.396Z,411.42
2019-04-21T09:24:29.445Z,410.86
2019-04-21T09:25:44.808Z,412.36
2019-04-21T09:26:29.570Z,412.56
2019-04-21T09:27:30.875Z,413.62
2019-04-21T09:28:28.532Z,412.33
2019-04-21T09:29:21.879Z,415.53
2019-04-21T09:30:13.526Z,413.70
2019-04-21T09:31:12.510Z,413.12
2019-04-21T09:32:19.708Z,413.83
2019-04-21T09:33:14.066Z,411.94
2019-04-21T09:34:22.001Z,413.67
2019-04-21T09:35:15.434Z,416.41
2019-04-21T09:36:15.461Z,411.11
2019-04-21T09:37:26.540Z,414.96
2019-04-21T09:38:27.067Z,414.07
2019-04-21T09:39:18.300Z,414.72
2019-04-21T09:40:15.333Z,414.67
2019-04-21T09:41:16.390Z,415.75
2019-04-21T09:42:13.860Z,411.61
2019-04-21T09:43:18.706Z,415.01
2019-04-21T09:44:17.196Z,415.00
2019-04-21T09:45:14.319Z,415.30
2019-04-21T09:46:12.343Z,412.85
2019-04-21T09:47:12.941Z,413.88
2019-04-21T09:48:17.072Z,411.39
2019-04-21T09:49:16.835Z,412.09
2019-04-21T09:50:13.516Z,412.07
2019-04-21T09:51:13.072Z,414.27
2019-04-21T09:52:18.566Z,415.31
2019-04-21T09:53:22.772Z,413.54
2019-04-21T09:54:20.721Z,412.50
2019-04-21T09:55:18.912Z,413.19
2019-04-21T09:56:16.625Z,409.97
2019-04-21T09:57:24.380Z,415.17
2019-04-21T09:58:21.720Z,412.55
2019-04-21T09:59:23.074Z,413.90
2019-04-21T10:00:20.655Z,412.39
2019-04-21T10:01:20.360Z,414.27
2019-04-21T10:02:19.334Z,418.05
2019-04-21T10:03:15.741Z,413.76
2019-04-21T10:04:12.141Z,414.17
2019-04-21T10:05:12.423Z,412.17
2019-04-21T10:06:14.396Z,412.83
2019-04-21T10:07:23.701Z,413.01
2019-04-21T10:08:14.474Z,413.14
2019-04-21T10:09:14.888Z,410.75
2019-04-21T10:10:13.067Z,413.27
2019-04-21T10:11:12.070Z,413.93
2019-04-21T10:12:12.054Z,415.99
2019-04-21T10:13:12.883Z,411.64
2019-04-21T10:14:12.015Z,411.78
2019-04-21T10:15:12.011Z,413.84
2019-04-21T10:16:13.198Z,413.74
2019-04-21T10:17:13.078Z,414.80
2019-04-21T10:18:13.023Z,411.84
2019-04-21T10:19:13.093Z,416.16
2019-04-21T10:20:11.969Z,414.99
2019-04-21T10:21:13.102Z,414.58
2019-04-21T10:22:12.636Z,415.18
2019-04-21T10:23:11.957Z,412.68
2019-04-21T10:24:12.515Z,413.71
2019-04-21T10:25:12.548Z,413.23
2019-04-21T10:26:12.674Z,413.37
2019-04-21T10:27:13.323Z,412.26
2019-04-21T10:28:12.857Z,411.88
2019-04-21T10:29:16.987Z,414.50
2019-04-21T10:30:14.055Z,412.56
2019-04-21T10:31:11.817Z,415.08
2019-04-21T10:32:13.063Z,411.46
2019-04-21T10:33:12.512Z,410.05
2019-04-21T10:34:11.785Z,413.12
2019-04-21T10:35:12.904Z,416.58
2019-04-21T10:36:13.014Z,412.70
2019-04-21T10:37:13.226Z,416.18
2019-04-21T10:38:23.037Z,411.39
2019-04-21T10:39:13.675Z,415.75
2019-04-21T10:40:11.833Z,413.21
2019-04-21T10:41:11.857Z,416.71
2019-04-21T10:42:11.727Z,415.35
2019-04-21T10:43:13.712Z,418.14
2019-04-21T10:44:11.683Z,412.66
2019-04-21T10:45:12.737Z,414.38
2019-04-21T10:46:12.783Z,414.26
2019-04-21T10:47:13.074Z,414.43
2019-04-21T10:48:12.793Z,413.43
2019-04-21T10:49:12.674Z,414.59
2019-04-21T10:50:12.930Z,412.25
2019-04-21T10:51:12.932Z,413.56
2019-04-21T10:52:12.892Z,413.79
2019-04-21T10:53:11.597Z,414.32
2019-04-21T10:54:11.765Z,413.18
2019-04-21T10:55:32.055Z,413.64
2019-04-21T10:56:21.856Z,413.23
2019-04-21T10:57:12.641Z,411.28
2019-04-21T10:58:11.523Z,414.66
2019-04-21T10:59:12.126Z,411.36
2019-04-21T11:00:12.616Z,416.84
2019-04-21T11:01:13.863Z,414.46
2019-04-21T11:02:12.701Z,413.21
2019-04-21T11:03:12.947Z,410.98
2019-04-21T11:04:17.280Z,412.99
2019-04-21T11:05:12.568Z,408.09
2019-04-21T11:06:12.703Z,408.19
2019-04-21T11:07:17.535Z,411.29
2019-04-21T11:08:23.038Z,413.39
2019-04-21T11:09:13.749Z,415.45
2019-04-21T11:10:11.911Z,415.80
2019-04-21T11:11:12.100Z,413.15
2019-04-21T11:12:11.396Z,414.70
2019-04-21T11:13:12.473Z,410.43
2019-04-21T11:14:11.344Z,412.40
2019-04-21T11:15:11.577Z,411.43
2019-04-21T11:16:11.337Z,413.58
2019-04-21T11:17:12.262Z,415.95
2019-04-21T11:18:12.179Z,410.85
2019-04-21T11:19:11.737Z,414.95
2019-04-21T11:20:11.272Z,411.56
2019-04-21T11:21:11.295Z,407.57
2019-04-21T11:22:12.565Z,415.39
2019-04-21T11:23:12.157Z,417.14
2019-04-21T11:24:12.305Z,415.42
2019-04-21T11:25:12.751Z,416.02
2019-04-21T11:26:12.008Z,417.96
2019-04-21T11:27:11.203Z,417.01
2019-04-21T11:28:11.263Z,416.96
2019-04-21T11:29:11.174Z,417.15
2019-04-21T11:30:11.736Z,417.01
2019-04-21T11:31:11.199Z,414.56
2019-04-21T11:32:11.162Z,414.78
2019-04-21T11:33:11.268Z,413.27
2019-04-21T11:34:11.358Z,414.50
2019-04-21T11:35:11.109Z,413.77
2019-04-21T11:36:11.222Z,413.06
2019-04-21T11:37:12.332Z,412.37
2019-04-21T11:38:17.013Z,413.15
2019-04-21T11:39:23.268Z,415.81
2019-04-21T11:40:14.917Z,417.33
2019-04-21T11:41:12.042Z,412.52
2019-04-21T11:42:12.066Z,415.56
2019-04-21T11:43:11.520Z,413.18
2019-04-21T11:44:12.078Z,411.54
2019-04-21T11:45:12.419Z,412.87
2019-04-21T11:46:10.990Z,410.64
2019-04-21T11:47:12.157Z,408.89
2019-04-21T11:48:12.350Z,415.68
2019-04-21T11:49:12.440Z,412.94
2019-04-21T11:50:11.036Z,414.82
2019-04-21T11:51:11.079Z,415.63
2019-04-21T11:52:11.323Z,415.18
2019-04-21T11:53:11.027Z,416.90
2019-04-21T11:54:11.007Z,412.54
2019-04-21T11:55:11.120Z,413.40
2019-04-21T11:56:10.880Z,415.47
2019-04-21T11:57:15.153Z,413.46
2019-04-21T11:58:11.960Z,416.34
2019-04-21T11:59:12.023Z,412.74
2019-04-21T12:00:11.471Z,414.94
2019-04-21T12:01:11.634Z,412.92
2019-04-21T12:02:11.978Z,411.68
2019-04-21T12:03:13.297Z,411.86
2019-04-21T12:04:11.715Z,412.67
2019-04-21T12:05:11.719Z,414.73
2019-04-21T12:06:11.149Z,410.58
2019-04-21T12:07:11.373Z,414.79
2019-04-21T12:08:21.201Z,416.26
2019-04-21T12:09:11.948Z,415.20
2019-04-21T12:10:11.321Z,416.84
2019-04-21T12:11:11.408Z,419.81
2019-04-21T12:12:11.616Z,415.24
2019-04-21T12:13:11.996Z,414.30
2019-04-21T12:14:12.037Z,413.52
2019-04-21T12:15:12.403Z,413.75
2019-04-21T12:16:10.794Z,413.63
2019-04-21T12:17:12.022Z,415.46
2019-04-21T12:18:12.049Z,414.05
2019-04-21T12:19:10.627Z,413.60
2019-04-21T12:20:10.749Z,413.55
2019-04-21T12:21:11.473Z,415.04
2019-04-21T12:22:18.225Z,414.65
2019-04-21T12:23:12.207Z,416.66
2019-04-21T12:24:11.118Z,413.09
2019-04-21T12:25:11.258Z,412.70
2019-04-21T12:26:10.532Z,413.42
2019-04-21T12:27:11.906Z,410.56
2019-04-21T12:28:12.078Z,415.34
2019-04-21T12:29:10.519Z,414.82
2019-04-21T12:30:11.446Z,413.10
2019-04-21T12:31:11.616Z,417.65
2019-04-21T12:32:10.503Z,414.63
2019-04-21T12:33:11.963Z,411.46
2019-04-21T12:34:10.445Z,417.56
2019-04-21T12:35:10.447Z,416.12
2019-04-21T12:36:11.494Z,414.19
2019-04-21T12:37:10.950Z,415.58
2019-04-21T12:38:10.940Z,414.43
2019-04-21T12:39:10.788Z,412.24
2019-04-21T12:40:10.589Z,412.62
2019-04-21T12:41:10.731Z,414.25
2019-04-21T12:42:10.374Z,414.78
2019-04-21T12:43:10.663Z,414.45
2019-04-21T12:44:10.883Z,415.71
2019-04-21T12:45:10.325Z,413.28
2019-04-21T12:46:10.308Z,413.13
2019-04-21T12:47:10.338Z,419.02
2019-04-21T12:48:10.485Z,416.57
2019-04-21T12:49:11.728Z,413.53
2019-04-21T12:50:10.921Z,414.41
2019-04-21T12:51:10.276Z,413.87
2019-04-21T12:52:11.444Z,417.77
2019-04-21T12:53:12.593Z,409.63
2019-04-21T12:54:10.225Z,414.00
2019-04-21T12:55:11.410Z,416.05
2019-04-21T12:56:11.616Z,413.86
2019-04-21T12:57:11.613Z,416.12
2019-04-21T12:58:11.017Z,413.30
2019-04-21T12:59:10.166Z,411.95
2019-04-21T13:00:11.144Z,412.53
2019-04-21T13:01:10.146Z,418.37
2019-04-21T13:02:11.588Z,418.26
2019-04-21T13:03:10.133Z,416.69
2019-04-21T13:04:10.178Z,413.02
2019-04-21T13:05:11.569Z,416.63
2019-04-21T13:06:10.100Z,415.58
2019-04-21T13:07:10.077Z,417.11
2019-04-21T13:08:11.188Z,413.85
2019-04-21T13:09:13.061Z,417.66
2019-04-21T13:10:11.089Z,412.59
2019-04-21T13:11:11.336Z,417.37
2019-04-21T13:12:11.087Z,412.30
2019-04-21T13:13:10.094Z,410.25
2019-04-21T13:14:10.067Z,409.11
2019-04-21T13:15:10.837Z,413.06
2019-04-21T13:16:09.963Z,413.77
2019-04-21T13:17:10.044Z,412.58
2019-04-21T13:18:10.171Z,416.74
2019-04-21T13:19:11.361Z,414.42
2019-04-21T13:20:09.940Z,411.73
2019-04-21T13:21:09.987Z,415.41
2019-04-21T13:22:10.005Z,416.55
2019-04-21T13:23:10.216Z,413.17
2019-04-21T13:24:09.889Z,413.36
2019-04-21T13:25:09.882Z,414.23
2019-04-21T13:26:11.203Z,413.52
2019-04-21T13:27:11.334Z,408.66
2019-04-21T13:28:10.459Z,415.47
2019-04-21T13:29:10.220Z,408.23
2019-04-21T13:30:10.465Z,406.29
2019-04-21T13:31:09.815Z,415.83
2019-04-21T13:32:10.712Z,409.80
2019-04-21T13:33:11.170Z,413.42
2019-04-21T13:34:10.480Z,417.85
2019-04-21T13:35:10.824Z,417.84
2019-04-21T13:36:09.823Z,414.99
2019-04-21T13:37:09.821Z,413.91
2019-04-21T13:38:19.956Z,408.67
2019-04-21T13:39:42.698Z,415.80